METAR Data
IDs: Format: Raw Decoded Include TAF

Data at: 0142 UTC 24 Sep 2018

KBUF 240054Z 05009KT 10SM FEW200 14/09 A3026 RMK AO2 SLP250 T01390094
KBUF 232354Z 03009KT 10SM FEW200 15/09 A3024 RMK AO2 SLP242 T01500089 10211 20150 53014
KBUF 232254Z 02011KT 10SM FEW200 18/08 A3023 RMK AO2 SLP238 T01780083
KBUF 232154Z 03009KT 10SM FEW200 20/09 A3021 RMK AO2 SLP230 T02000094
KBUF 232054Z 02007KT 10SM FEW200 21/09 A3020 RMK AO2 SLP227 T02060094 56006
KBUF 231954Z 12006KT 10SM FEW200 21/09 A3020 RMK AO2 SLP228 T02060089
KBUF 231854Z 00000KT 10SM FEW190 FEW250 20/09 A3020 RMK AO2 SLP228 T02000089
KBUF 231754Z VRB04KT 10SM FEW040 FEW200 19/09 A3022 RMK AO2 SLP233 T01940089 10194 20083 58014
KBUF 231654Z 03006KT 10SM FEW035 FEW200 18/09 A3024 RMK AO2 SLP240 T01830089
KBUF 231554Z 07004KT 10SM FEW030 FEW190 FEW230 17/09 A3025 RMK AO2 SLP244 T01720089
KBUF 231454Z VRB04KT 10SM FEW030 FEW180 FEW230 16/09 A3026 RMK AO2 SLP248 T01560089 53004
KBUF 231354Z 11005KT 10SM FEW040 FEW190 FEW250 14/09 A3026 RMK AO2 SLP248 T01390089
KBUF 231254Z 08003KT 10SM FEW035 FEW190 FEW230 11/08 A3024 RMK AO2 SLP244 T01110083
KBUF 231154Z 00000KT 10SM FEW035 FEW270 08/07 A3025 RMK AO2 SLP246 T00830072 10094 20072 51007
KBUF 231054Z 11003KT 10SM FEW035 08/07 A3024 RMK AO2 SLP243 T00780067
KBUF 230954Z 11004KT 10SM CLR 08/07 A3023 RMK AO2 SLP240 T00780067
KBUF 230854Z 00000KT 10SM CLR 08/07 A3022 RMK AO2 SLP237 T00830072 58003
KBUF 230754Z 14004KT 10SM CLR 08/07 A3023 RMK AO2 SLP239 T00830072
KBUF 230654Z 14003KT 10SM FEW280 09/08 A3023 RMK AO2 SLP241 T00890078
KBUF 230554Z 14004KT 10SM BKN250 09/08 A3023 RMK AO2 SLP241 T00940078 10117 20094 58003
KBUF 230454Z 12005KT 10SM BKN220 10/08 A3024 RMK AO2 SLP242 T01000078 401720100
KBUF 230354Z 12006KT 10SM BKN200 11/08 A3024 RMK AO2 SLP244 T01060078
KBUF 230254Z COR 10005KT 10SM BKN200 11/08 A3024 RMK AO2 SLP244 T01110078 58002
KBUF 230154Z 07004KT 10SM BKN100 BKN200 11/08 A3025 RMK AO2 SLP246 T01110078
KBUF 230054Z 03003KT 10SM BKN100 BKN200 11/07 A3025 RMK AO2 SLP247 T01110072
KBUF 222354Z 35006KT 10SM BKN070 BKN200 12/08 A3025 RMK AO2 SLP246 T01170078 10161 20117 55000
KBUF 222254Z 34006KT 10SM BKN070 BKN200 13/08 A3024 RMK AO2 SLP243 T01280078
KBUF 222154Z 35005KT 10SM SCT035 BKN070 BKN200 14/08 A3025 RMK AO2 SLP244 T01440078 $
KBUF 222054Z VRB04KT 10SM SCT035 BKN070 BKN200 16/07 A3025 RMK AO2 SLP245 T01560072 55007 $
KBUF 221954Z 33004KT 10SM SCT037 BKN200 16/07 A3025 RMK AO2 SLP243 T01560072 $
KBUF 221854Z 00000KT 10SM SCT034 BKN200 16/07 A3025 RMK AO2 SLP245 T01560072 $
KBUF 221754Z VRB04KT 10SM BKN034 BKN200 14/07 A3027 RMK AO2 SLP252 T01440072 10156 20128 58003 $
KBUF 221654Z 01007KT 10SM BKN030 BKN200 15/07 A3028 RMK AO2 SLP255 T01500072 $
KBUF 221638Z 03007KT 10SM BKN030 BKN200 14/07 A3028 RMK AO2 T01390067 $
KBUF 221554Z 35008KT 10SM BKN028 13/07 A3030 RMK AO2 SLP260 T01330072 $
KBUF 221454Z 03008KT 10SM OVC028 14/08 A3028 RMK AO2 SLP254 T01390078 53012 $
KBUF 221354Z 36009KT 10SM BKN026 BKN031 BKN200 13/07 A3027 RMK AO2 SLP249 T01280072 $